Time;durP1;ratioP1;P1;durP2;ratioP2;P2;SDS_P1;SDS_P2;PMS_P1;PMS_P2;Temp;Humidity;BMP_temperature;BMP_pressure;BME280_temperature;BME280_humidity;BME280_pressure;Samples;Min_cycle;Max_cycle;Signal;HPM_P1;HPM_P2
2022/08/24 00:01:49;;;;;;;;;;;;;;;;;;5022292;28;19921;-85
2022/08/24 00:04:14;;;;;;;;;;;;;;;;;;5021603;28;20397;-85
2022/08/24 00:06:40;;;;;;;;;;;;;;;;;;5021049;28;19921;-85
2022/08/24 00:09:05;;;;;;;;;;;;;;;;;;5016375;28;19913;-85
2022/08/24 00:11:30;;;;;;;;;;;;;;;;;;4999900;28;19917;-85
2022/08/24 00:13:55;;;;;;;;;;;;;;;;;;5022390;28;19913;-84
2022/08/24 00:16:21;;;;;;;;;;;;;;;;;;5022737;28;19979;-85
2022/08/24 00:18:46;;;;;;;;;;;;;;;;;;5020894;28;19967;-85
2022/08/24 00:21:12;;;;;;;;;;;;;;;;;;5020117;28;19928;-84
2022/08/24 00:23:37;;;;;;;;;;;;;;;;;;5022201;28;19913;-85
2022/08/24 00:26:03;;;;;;;;;;;;;;;;;;5001591;28;19990;-85
2022/08/24 00:28:29;;;;;;;;;;;;;;;;;;5019850;28;19917;-85
2022/08/24 00:30:54;;;;;;;;;;;;;;;;;;5022347;28;19913;-85
2022/08/24 00:33:19;;;;;;;;;;;;;;;;;;5017244;28;20366;-85
2022/08/24 00:35:44;;;;;;;;;;;;;;;;;;5021834;28;19920;-85
2022/08/24 00:38:09;;;;;;;;;;;;;;;;;;5023827;28;20205;-85
2022/08/24 00:40:34;;;;;;;;;;;;;;;;;;5022531;28;19917;-85
2022/08/24 00:43:03;;;;;;;;;;;;;;;;;;5018423;28;20050;-85
2022/08/24 00:45:28;;;;;;;;;;;;;;;;;;5015253;28;19928;-85
2022/08/24 00:47:53;;;;;;;;;;;;;;;;;;5020872;28;19913;-85
2022/08/24 00:50:19;;;;;;;;;;;;;;;;;;5018151;28;20333;-85
2022/08/24 00:52:45;;;;;;;;;;;;;;;;;;5018283;28;19917;-85
2022/08/24 00:55:10;;;;;;;;;;;;;;;;;;5020476;28;19917;-84
2022/08/24 00:57:35;;;;;;;;;;;;;;;;;;5022515;28;20360;-84
2022/08/24 01:00:00;;;;;;;;;;;;;;;;;;5004512;28;20398;-84
2022/08/24 01:02:26;;;;;;;;;;;;;;;;;;5017820;28;20298;-84
2022/08/24 01:04:51;;;;;;;;;;;;;;;;;;5016194;28;19929;-84
2022/08/24 01:07:16;;;;;;;;;;;;;;;;;;5017348;28;19917;-84
2022/08/24 01:09:41;;;;;;;;;;;;;;;;;;5020903;28;19913;-84
2022/08/24 01:12:08;;;;;;;;;;;;;;;;;;5019347;28;20419;-84
2022/08/24 01:14:33;;;;;;;;;;;;;;;;;;5022964;28;19913;-84
2022/08/24 01:19:42;;;;;;;;;;;;;;;;;;5018177;28;20107;-85
2022/08/24 01:22:08;;;;;;;;;;;;;;;;;;5016301;28;20267;-84
2022/08/24 01:24:33;;;;;;;;;;;;;;;;;;5014714;28;19917;-85
2022/08/24 01:26:58;;;;;;;;;;;;;;;;;;5021171;28;19921;-85
2022/08/24 01:29:23;;;;;;;;;;;;;;;;;;5015306;28;19913;-84
2022/08/24 01:31:48;;;;;;;;;;;;;;;;;;5017422;28;19917;-85
2022/08/24 01:34:14;;;;;;;;;;;;;;;;;;5016909;28;19921;-85
2022/08/24 01:36:39;;;;;;;;;;;;;;;;;;5016788;28;19913;-84
2022/08/24 01:39:04;;;;;;;;;;;;;;;;;;4997850;28;19928;-84
2022/08/24 01:41:29;;;;;;;;;;;;;;;;;;5019267;28;20055;-84
2022/08/24 01:43:54;;;;;;;;;;;;;;;;;;5016720;28;20043;-85
2022/08/24 01:46:19;;;;;;;;;;;;;;;;;;5015636;28;19921;-84
2022/08/24 01:48:45;;;;;;;;;;;;;;;;;;5012733;28;19975;-84
2022/08/24 01:51:10;;;;;;;;;;;;;;;;;;5015739;28;19975;-85
2022/08/24 01:53:35;;;;;;;;;;;;;;;;;;5020588;28;19914;-84
2022/08/24 01:56:00;;;;;;;;;;;;;;;;;;5015733;28;19944;-84
2022/08/24 01:58:25;;;;;;;;;;;;;;;;;;5019471;28;19927;-85
2022/08/24 02:00:51;;;;;;;;;;;;;;;;;;5014184;28;19913;-85
2022/08/24 02:03:16;;;;;;;;;;;;;;;;;;5017275;28;19914;-85
2022/08/24 02:05:41;;;;;;;;;;;;;;;;;;5012874;28;19917;-85
2022/08/24 02:08:07;;;;;;;;;;;;;;;;;;5012076;28;19917;-85
2022/08/24 02:10:32;;;;;;;;;;;;;;;;;;5013212;28;20059;-85
2022/08/24 02:12:57;;;;;;;;;;;;;;;;;;5015711;28;19921;-85
2022/08/24 02:15:26;;;;;;;;;;;;;;;;;;5017489;28;20055;-85
2022/08/24 02:17:51;;;;;;;;;;;;;;;;;;5020207;28;20275;-84
2022/08/24 02:20:17;;;;;;;;;;;;;;;;;;5018034;28;20280;-85
2022/08/24 02:22:42;;;;;;;;;;;;;;;;;;5015966;28;20187;-85
2022/08/24 02:25:07;;;;;;;;;;;;;;;;;;5018399;28;19917;-85
2022/08/24 02:27:32;;;;;;;;;;;;;;;;;;5022308;28;20349;-84
2022/08/24 02:29:57;;;;;;;;;;;;;;;;;;5021379;28;19931;-84
2022/08/24 02:32:23;;;;;;;;;;;;;;;;;;5024145;28;20329;-85
2022/08/24 02:34:48;;;;;;;;;;;;;;;;;;5018297;28;19953;-85
2022/08/24 02:37:13;;;;;;;;;;;;;;;;;;5016599;28;19992;-85
2022/08/24 02:39:38;;;;;;;;;;;;;;;;;;5018806;28;20314;-85
2022/08/24 02:42:04;;;;;;;;;;;;;;;;;;5022936;28;20100;-84
2022/08/24 02:44:29;;;;;;;;;;;;;;;;;;5017476;28;19921;-84
2022/08/24 02:46:54;;;;;;;;;;;;;;;;;;5021062;28;19925;-84
2022/08/24 02:49:21;;;;;;;;;;;;;;;;;;5017197;28;19971;-85
2022/08/24 02:51:47;;;;;;;;;;;;;;;;;;5023078;28;19970;-85
2022/08/24 02:54:12;;;;;;;;;;;;;;;;;;5021218;28;19920;-85
2022/08/24 02:56:37;;;;;;;;;;;;;;;;;;5021279;28;20192;-85
2022/08/24 02:59:02;;;;;;;;;;;;;;;;;;5018186;28;20060;-85
2022/08/24 03:01:27;;;;;;;;;;;;;;;;;;5016191;28;19963;-85
2022/08/24 03:03:52;;;;;;;;;;;;;;;;;;5017136;28;19941;-85
2022/08/24 03:06:18;;;;;;;;;;;;;;;;;;5016302;28;19976;-84
2022/08/24 03:08:44;;;;;;;;;;;;;;;;;;5022944;28;20314;-84
2022/08/24 03:11:09;;;;;;;;;;;;;;;;;;5017727;28;19914;-84
2022/08/24 03:13:35;;;;;;;;;;;;;;;;;;5016081;28;20112;-84
2022/08/24 03:16:00;;;;;;;;;;;;;;;;;;5018519;28;19921;-85
2022/08/24 03:18:25;;;;;;;;;;;;;;;;;;5020814;28;20371;-84
2022/08/24 03:20:50;;;;;;;;;;;;;;;;;;5017469;28;19922;-84
2022/08/24 03:23:15;;;;;;;;;;;;;;;;;;5020676;28;19920;-85
2022/08/24 03:25:40;;;;;;;;;;;;;;;;;;5012614;28;19972;-85
2022/08/24 03:28:06;;;;;;;;;;;;;;;;;;5017865;28;19921;-85
2022/08/24 03:30:31;;;;;;;;;;;;;;;;;;5020882;28;19917;-85
2022/08/24 03:32:56;;;;;;;;;;;;;;;;;;5020548;28;20288;-84
2022/08/24 03:35:21;;;;;;;;;;;;;;;;;;5022441;28;19919;-85
2022/08/24 03:37:46;;;;;;;;;;;;;;;;;;5017953;28;20417;-85
2022/08/24 03:40:11;;;;;;;;;;;;;;;;;;5021249;28;20390;-85
2022/08/24 03:42:37;;;;;;;;;;;;;;;;;;5017375;28;19917;-84
2022/08/24 03:45:02;;;;;;;;;;;;;;;;;;5018019;28;20345;-85
2022/08/24 03:47:27;;;;;;;;;;;;;;;;;;5017958;28;19953;-85
2022/08/24 03:49:52;;;;;;;;;;;;;;;;;;5017827;28;20314;-84
2022/08/24 12:41:53;;;;;;;;;;;;;;;;;;4990829;28;19973;-90
2022/08/24 12:44:18;;;;;;;;;;;;;;;;;;4992309;28;19910;-90
2022/08/24 12:46:43;;;;;;;;;;;;;;;;;;4993711;28;19914;-90
2022/08/24 12:49:09;;;;;;;;;;;;;;;;;;4993260;28;19910;-90
2022/08/24 12:51:34;;;;;;;;;;;;;;;;;;4993162;28;19914;-90
2022/08/24 12:54:00;;;;;;;;;;;;;;;;;;5030813;23;20061;-86
2022/08/24 12:56:25;;;;;;;;;;;;;;;;;;5035498;28;20313;-86
2022/08/24 12:58:50;;;;;;;;;;;;;;;;;;5036054;28;19920;-86
2022/08/24 13:01:16;;;;;;;;;;;;;;;;;;5024783;28;19929;-86
2022/08/24 13:03:41;;;;;;;;;;;;;;;;;;5035501;28;19917;-86
2022/08/24 13:06:06;;;;;;;;;;;;;;;;;;5037716;28;20417;-86
2022/08/24 13:08:32;;;;;;;;;;;;;;;;;;5036839;28;19926;-86
2022/08/24 13:10:57;;;;;;;;;;;;;;;;;;5038104;28;20459;-87
2022/08/24 13:13:22;;;;;;;;;;;;;;;;;;5038264;28;19921;-86
2022/08/24 13:15:47;;;;;;;;;;;;;;;;;;5035794;28;19909;-87
2022/08/24 13:18:12;;;;;;;;;;;;;;;;;;5035729;28;19974;-86
2022/08/24 13:20:37;;;;;;;;;;;;;;;;;;5042963;28;20003;-86
2022/08/24 13:23:03;;;;;;;;;;;;;;;;;;5042233;28;19920;-87
2022/08/24 13:25:28;;;;;;;;;;;;;;;;;;5037770;28;19917;-86
2022/08/24 13:27:53;;;;;;;;;;;;;;;;;;5034119;28;19913;-86
2022/08/24 13:30:18;;;;;;;;;;;;;;;;;;5020070;28;19921;-86
2022/08/24 13:32:43;;;;;;;;;;;;;;;;;;5036034;28;20409;-87
2022/08/24 13:35:08;;;;;;;;;;;;;;;;;;5036866;28;19974;-86
2022/08/24 13:37:34;;;;;;;;;;;;;;;;;;5040434;28;20318;-86
2022/08/24 13:39:59;;;;;;;;;;;;;;;;;;5021252;28;20113;-87
2022/08/24 13:42:24;;;;;;;;;;;;;;;;;;5032939;28;19995;-86
2022/08/24 13:44:49;;;;;;;;;;;;;;;;;;5043193;28;20297;-86
2022/08/24 13:47:15;;;;;;;;;;;;;;;;;;5039008;28;19925;-86
2022/08/24 13:49:40;;;;;;;;;;;;;;;;;;5039296;28;19913;-86
2022/08/24 13:52:06;;;;;;;;;;;;;;;;;;5039300;28;20327;-86
2022/08/24 13:54:31;;;;;;;;;;;;;;;;;;5041089;28;19921;-86
2022/08/24 13:56:56;;;;;;;;;;;;;;;;;;5039558;28;19913;-86
2022/08/24 13:59:22;;;;;;;;;;;;;;;;;;5040264;28;19924;-86
2022/08/24 14:01:47;;;;;;;;;;;;;;;;;;5041386;28;20331;-86
2022/08/24 14:04:12;;;;;;;;;;;;;;;;;;5037335;28;19917;-86
2022/08/24 14:06:37;;;;;;;;;;;;;;;;;;5041739;28;20006;-86
2022/08/24 14:09:02;;;;;;;;;;;;;;;;;;5034765;28;20378;-87
2022/08/24 14:11:32;;;;;;;;;;;;;;;;;;5039997;28;20421;-86
2022/08/24 14:13:57;;;;;;;;;;;;;;;;;;5043787;28;20011;-86
2022/08/24 14:19:06;;;;;;;;;;;;;;;;;;5045668;28;19923;-87
2022/08/24 14:21:31;;;;;;;;;;;;;;;;;;5046936;28;19912;-86
2022/08/24 14:23:57;;;;;;;;;;;;;;;;;;5048552;28;20394;-86
2022/08/24 14:26:23;;;;;;;;;;;;;;;;;;5045974;28;19956;-86
2022/08/24 14:28:48;;;;;;;;;;;;;;;;;;5046767;28;19971;-86
2022/08/24 14:31:13;;;;;;;;;;;;;;;;;;5043994;28;19924;-86
2022/08/24 14:33:39;;;;;;;;;;;;;;;;;;5042606;28;19983;-86
2022/08/24 14:36:04;;;;;;;;;;;;;;;;;;5048629;28;20023;-86
2022/08/24 14:38:29;;;;;;;;;;;;;;;;;;5042712;28;19921;-86
2022/08/24 14:40:54;;;;;;;;;;;;;;;;;;5047171;28;20008;-86
2022/08/24 14:43:20;;;;;;;;;;;;;;;;;;5037151;28;19921;-86
2022/08/24 14:45:45;;;;;;;;;;;;;;;;;;5048392;28;19913;-87
2022/08/24 14:48:10;;;;;;;;;;;;;;;;;;5048100;28;19916;-86
2022/08/24 14:50:36;;;;;;;;;;;;;;;;;;5031689;28;20309;-86
2022/08/24 14:53:01;;;;;;;;;;;;;;;;;;5043790;28;19960;-86
2022/08/24 14:55:27;;;;;;;;;;;;;;;;;;5048758;28;19948;-86
2022/08/24 14:57:52;;;;;;;;;;;;;;;;;;5048124;28;19935;-86
2022/08/24 15:00:19;;;;;;;;;;;;;;;;;;5046792;28;20366;-86
2022/08/24 15:02:44;;;;;;;;;;;;;;;;;;5041122;28;19921;-86
2022/08/24 15:05:09;;;;;;;;;;;;;;;;;;5045368;28;19920;-86
2022/08/24 15:07:35;;;;;;;;;;;;;;;;;;5040441;28;19968;-86
2022/08/24 15:10:00;;;;;;;;;;;;;;;;;;5022985;28;19916;-86
2022/08/24 15:12:25;;;;;;;;;;;;;;;;;;5045437;28;19913;-87
2022/08/24 15:14:51;;;;;;;;;;;;;;;;;;5025890;28;19913;-88
2022/08/24 15:17:16;;;;;;;;;;;;;;;;;;5048807;28;19913;-86
2022/08/24 15:19:41;;;;;;;;;;;;;;;;;;5044662;28;20288;-87
2022/08/24 15:22:06;;;;;;;;;;;;;;;;;;5039380;28;19917;-86
2022/08/24 15:24:31;;;;;;;;;;;;;;;;;;5048439;28;20018;-86
2022/08/24 15:26:57;;;;;;;;;;;;;;;;;;5047986;28;19994;-86
2022/08/24 15:29:22;;;;;;;;;;;;;;;;;;5031848;28;19912;-86
2022/08/24 15:31:48;;;;;;;;;;;;;;;;;;5045004;28;19956;-86
2022/08/24 15:34:13;;;;;;;;;;;;;;;;;;5045748;28;19916;-86
2022/08/24 15:36:38;;;;;;;;;;;;;;;;;;5048467;28;20010;-86
2022/08/24 15:39:04;;;;;;;;;;;;;;;;;;5049494;28;20305;-86
2022/08/24 15:41:29;;;;;;;;;;;;;;;;;;5043496;28;19982;-86
2022/08/24 15:43:54;;;;;;;;;;;;;;;;;;5032107;28;20046;-85
2022/08/24 15:46:20;;;;;;;;;;;;;;;;;;5049049;28;19947;-87
2022/08/24 15:48:46;;;;;;;;;;;;;;;;;;5051218;28;19924;-86
2022/08/24 15:51:11;;;;;;;;;;;;;;;;;;5043816;28;19936;-86
2022/08/24 15:53:37;;;;;;;;;;;;;;;;;;5043068;28;20432;-86
2022/08/24 15:56:02;;;;;;;;;;;;;;;;;;5047369;28;19939;-86
2022/08/24 15:58:28;;;;;;;;;;;;;;;;;;5045594;28;19916;-85
2022/08/24 16:03:44;;;;;;;;;;;;;;;;;;5010255;28;19999;-86
2022/08/24 16:06:09;;;;;;;;;;;;;;;;;;5039599;28;19920;-86
2022/08/24 16:08:34;;;;;;;;;;;;;;;;;;5046640;28;20421;-86
2022/08/24 16:11:00;;;;;;;;;;;;;;;;;;5043918;28;19916;-87
2022/08/24 16:13:25;;;;;;;;;;;;;;;;;;5046793;28;19924;-86
2022/08/24 16:15:50;;;;;;;;;;;;;;;;;;5041130;28;20294;-85
2022/08/24 16:18:15;;;;;;;;;;;;;;;;;;5045308;28;19913;-86
2022/08/24 16:20:40;;;;;;;;;;;;;;;;;;5023814;28;19913;-85
2022/08/24 16:23:05;;;;;;;;;;;;;;;;;;5049281;28;19916;-86
2022/08/24 16:25:31;;;;;;;;;;;;;;;;;;5050636;28;19923;-86
2022/08/24 16:27:56;;;;;;;;;;;;;;;;;;5046568;28;19917;-85
2022/08/24 16:30:23;;;;;;;;;;;;;;;;;;5045970;28;20317;-85
2022/08/24 16:32:48;;;;;;;;;;;;;;;;;;5043677;28;19916;-85
2022/08/24 16:35:13;;;;;;;;;;;;;;;;;;5051928;28;20375;-86
2022/08/24 16:37:38;;;;;;;;;;;;;;;;;;5044329;28;20425;-86
2022/08/24 16:40:04;;;;;;;;;;;;;;;;;;5046766;28;19909;-85
2022/08/24 16:42:29;;;;;;;;;;;;;;;;;;5042530;28;19921;-85
2022/08/24 16:44:54;;;;;;;;;;;;;;;;;;5042892;28;19992;-86
2022/08/24 16:47:19;;;;;;;;;;;;;;;;;;5045710;28;20240;-85
2022/08/24 16:49:44;;;;;;;;;;;;;;;;;;5045404;28;19917;-86
2022/08/24 16:52:09;;;;;;;;;;;;;;;;;;5041901;28;19931;-85
2022/08/24 16:54:35;;;;;;;;;;;;;;;;;;5023695;28;20000;-86
2022/08/24 16:57:00;;;;;;;;;;;;;;;;;;5041028;28;20300;-86
2022/08/24 16:59:25;;;;;;;;;;;;;;;;;;5044312;28;20421;-85
2022/08/24 17:01:50;;;;;;;;;;;;;;;;;;5051045;28;20014;-86
2022/08/24 17:07:12;;;;;;;;;;;;;;;;;;5033176;28;19916;-86
2022/08/24 17:09:37;;;;;;;;;;;;;;;;;;5029100;28;20275;-85
2022/08/24 17:12:02;;;;;;;;;;;;;;;;;;5024322;28;20045;-86
2022/08/24 17:14:27;;;;;;;;;;;;;;;;;;5047854;28;19920;-85
2022/08/24 17:17:00;;;;;;;;;;;;;;;;;;5050008;28;19919;-86
2022/08/24 17:19:25;;;;;;;;;;;;;;;;;;5044775;28;19920;-85
2022/08/24 17:21:53;;;;;;;;;;;;;;;;;;5049648;28;19910;-87
2022/08/24 17:24:18;;;;;;;;;;;;;;;;;;5046048;28;19949;-86
2022/08/24 17:26:43;;;;;;;;;;;;;;;;;;5029849;28;19971;-86
2022/08/24 17:29:11;;;;;;;;;;;;;;;;;;5044977;28;19955;-87
2022/08/24 17:31:37;;;;;;;;;;;;;;;;;;5052277;28;19919;-85
2022/08/24 17:34:03;;;;;;;;;;;;;;;;;;5055932;28;19916;-87
2022/08/24 17:36:30;;;;;;;;;;;;;;;;;;5053021;28;19913;-85
2022/08/24 17:38:56;;;;;;;;;;;;;;;;;;5051193;28;20012;-85
2022/08/24 17:41:21;;;;;;;;;;;;;;;;;;5049067;28;20008;-86
2022/08/24 17:43:49;;;;;;;;;;;;;;;;;;5049775;28;19913;-86
2022/08/24 17:46:14;;;;;;;;;;;;;;;;;;5047735;28;19923;-89
2022/08/24 17:48:39;;;;;;;;;;;;;;;;;;5058626;28;19951;-85
2022/08/24 17:51:04;;;;;;;;;;;;;;;;;;5040745;28;20129;-85
2022/08/24 17:53:30;;;;;;;;;;;;;;;;;;5043858;28;19917;-84
2022/08/24 17:55:55;;;;;;;;;;;;;;;;;;5046116;28;20174;-86
2022/08/24 17:58:22;;;;;;;;;;;;;;;;;;5044528;28;19913;-86
2022/08/24 18:00:50;;;;;;;;;;;;;;;;;;5039662;28;20007;-86
2022/08/24 18:03:17;;;;;;;;;;;;;;;;;;5051795;28;20483;-85
2022/08/24 18:05:43;;;;;;;;;;;;;;;;;;5052096;28;20382;-88
2022/08/24 18:08:08;;;;;;;;;;;;;;;;;;5048922;28;19913;-88
2022/08/24 18:10:33;;;;;;;;;;;;;;;;;;5051161;28;19946;-88
2022/08/24 18:12:58;;;;;;;;;;;;;;;;;;5053543;28;19913;-87
2022/08/24 18:15:29;;;;;;;;;;;;;;;;;;5050838;28;19913;-86
2022/08/24 18:17:56;;;;;;;;;;;;;;;;;;5055607;28;19963;-86
2022/08/24 18:20:42;;;;;;;;;;;;;;;;;;5054439;28;19924;-87
2022/08/24 18:23:18;;;;;;;;;;;;;;;;;;5049997;28;19924;-87
2022/08/24 18:25:46;;;;;;;;;;;;;;;;;;5056600;28;20341;-86
2022/08/24 18:28:23;;;;;;;;;;;;;;;;;;;;;
2022/08/24 18:30:49;;;;;;;;;;;;;;;;;;5052491;28;19909;-87
2022/08/24 18:33:17;;;;;;;;;;;;;;;;;;5056654;28;20731;-87
2022/08/24 18:35:43;;;;;;;;;;;;;;;;;;5049040;28;19952;-86
2022/08/24 18:38:08;;;;;;;;;;;;;;;;;;5052474;28;19987;-87
2022/08/24 18:40:33;;;;;;;;;;;;;;;;;;5030873;28;19944;-86
2022/08/24 18:42:58;;;;;;;;;;;;;;;;;;5052248;28;19924;-87
2022/08/24 18:45:26;;;;;;;;;;;;;;;;;;5034022;28;19912;-86
2022/08/24 18:48:00;;;;;;;;;;;;;;;;;;5052874;28;19917;-86
2022/08/24 18:50:47;;;;;;;;;;;;;;;;;;5050200;28;19967;-86
2022/08/24 18:53:12;;;;;;;;;;;;;;;;;;5047858;28;19913;-85
2022/08/24 18:55:41;;;;;;;;;;;;;;;;;;5046816;28;19912;-85
2022/08/24 18:58:06;;;;;;;;;;;;;;;;;;5051577;28;19919;-85
2022/08/24 19:00:31;;;;;;;;;;;;;;;;;;5048612;28;19916;-86
2022/08/24 19:02:57;;;;;;;;;;;;;;;;;;5054115;28;19934;-86
2022/08/24 19:05:22;;;;;;;;;;;;;;;;;;5051981;28;20011;-86
2022/08/24 19:13:27;;;;;;;;;;;;;;;;;;5007947;28;19935;-86
2022/08/24 19:16:09;;;;;;;;;;;;;;;;;;5052670;28;20366;-86
2022/08/24 19:18:34;;;;;;;;;;;;;;;;;;5048969;28;20294;-86
2022/08/24 19:21:11;;;;;;;;;;;;;;;;;;5052122;28;20382;-85
2022/08/24 19:23:37;;;;;;;;;;;;;;;;;;5050935;28;20436;-86
2022/08/24 19:26:05;;;;;;;;;;;;;;;;;;5048897;28;20377;-87
2022/08/24 19:31:25;;;;;;;;;;;;;;;;;;5049516;28;21687;-86
2022/08/24 19:33:52;;;;;;;;;;;;;;;;;;5036367;28;19921;-85
2022/08/24 19:36:21;;;;;;;;;;;;;;;;;;5055109;28;19912;-87
2022/08/24 19:38:49;;;;;;;;;;;;;;;;;;5049955;28;19912;-87
2022/08/24 19:41:24;;;;;;;;;;;;;;;;;;;;;
2022/08/24 19:46:33;;;;;;;;;;;;;;;;;;5048876;28;19970;-86
2022/08/24 19:49:01;;;;;;;;;;;;;;;;;;5058339;28;20190;-87
2022/08/24 19:54:17;;;;;;;;;;;;;;;;;;5013251;28;20010;-85
2022/08/24 19:56:51;;;;;;;;;;;;;;;;;;5047050;28;19913;-85
2022/08/24 19:59:25;;;;;;;;;;;;;;;;;;5046232;28;19920;-86
2022/08/24 20:01:53;;;;;;;;;;;;;;;;;;5051657;28;19921;-85
2022/08/24 20:04:26;;;;;;;;;;;;;;;;;;5050795;28;20275;-85
2022/08/24 20:06:52;;;;;;;;;;;;;;;;;;5049780;28;19920;-85
2022/08/24 20:09:17;;;;;;;;;;;;;;;;;;5046553;28;19913;-85
2022/08/24 20:11:43;;;;;;;;;;;;;;;;;;5042376;28;19909;-85
2022/08/24 20:14:08;;;;;;;;;;;;;;;;;;5048537;28;19909;-85
2022/08/24 20:16:33;;;;;;;;;;;;;;;;;;5049167;28;19923;-85
2022/08/24 20:18:59;;;;;;;;;;;;;;;;;;5048115;28;19913;-85
2022/08/24 20:21:26;;;;;;;;;;;;;;;;;;5047062;28;19967;-86
2022/08/24 20:23:53;;;;;;;;;;;;;;;;;;5051752;28;20382;-86
2022/08/24 20:26:29;;;;;;;;;;;;;;;;;;5049200;28;19966;-86
2022/08/24 20:28:54;;;;;;;;;;;;;;;;;;5053725;28;20736;-86
2022/08/24 20:31:22;;;;;;;;;;;;;;;;;;5048510;28;19913;-84
2022/08/24 20:33:47;;;;;;;;;;;;;;;;;;5045133;28;19917;-85
2022/08/24 20:36:13;;;;;;;;;;;;;;;;;;5043605;28;19928;-85
2022/08/24 20:38:38;;;;;;;;;;;;;;;;;;5044895;28;20308;-85
2022/08/24 20:41:03;;;;;;;;;;;;;;;;;;5044534;28;20440;-85
2022/08/24 20:43:28;;;;;;;;;;;;;;;;;;5043457;28;19913;-85
2022/08/24 20:45:53;;;;;;;;;;;;;;;;;;5044610;28;19917;-85
2022/08/24 20:48:19;;;;;;;;;;;;;;;;;;5039660;28;19921;-85
2022/08/24 20:50:44;;;;;;;;;;;;;;;;;;5036641;28;19917;-84
2022/08/24 20:53:10;;;;;;;;;;;;;;;;;;5035535;28;19925;-85
2022/08/24 20:55:35;;;;;;;;;;;;;;;;;;5041256;28;19943;-85
2022/08/24 20:58:02;;;;;;;;;;;;;;;;;;5034541;28;20314;-85
2022/08/24 21:00:28;;;;;;;;;;;;;;;;;;5043090;28;20196;-84
2022/08/24 21:02:53;;;;;;;;;;;;;;;;;;5040985;28;19920;-85
2022/08/24 21:05:18;;;;;;;;;;;;;;;;;;5036176;28;19917;-84
2022/08/24 21:07:48;;;;;;;;;;;;;;;;;;5020814;28;20031;-85
2022/08/24 21:10:13;;;;;;;;;;;;;;;;;;5041673;28;19917;-85
2022/08/24 21:12:38;;;;;;;;;;;;;;;;;;5038405;28;19913;-85
2022/08/24 21:15:03;;;;;;;;;;;;;;;;;;5043508;28;19916;-85
2022/08/24 21:17:29;;;;;;;;;;;;;;;;;;5024240;28;20623;-85
2022/08/24 21:19:54;;;;;;;;;;;;;;;;;;5017486;28;19913;-85
2022/08/24 21:22:19;;;;;;;;;;;;;;;;;;5038963;28;19944;-85
2022/08/24 21:24:44;;;;;;;;;;;;;;;;;;5041880;28;20282;-85
2022/08/24 21:27:09;;;;;;;;;;;;;;;;;;5040140;28;19927;-84
2022/08/24 21:29:34;;;;;;;;;;;;;;;;;;5019673;28;19968;-85
2022/08/24 21:34:43;;;;;;;;;;;;;;;;;;5037722;28;19948;-85
2022/08/24 21:37:08;;;;;;;;;;;;;;;;;;5036299;28;20004;-85
2022/08/24 21:39:34;;;;;;;;;;;;;;;;;;5044118;28;20439;-84
2022/08/24 21:42:00;;;;;;;;;;;;;;;;;;5038846;28;20374;-85
2022/08/24 21:44:25;;;;;;;;;;;;;;;;;;5036563;28;19917;-85
2022/08/24 21:46:50;;;;;;;;;;;;;;;;;;5038658;28;19960;-85
2022/08/24 21:49:15;;;;;;;;;;;;;;;;;;5039623;28;19999;-85
2022/08/24 21:51:40;;;;;;;;;;;;;;;;;;5034866;28;19918;-85
2022/08/24 21:54:06;;;;;;;;;;;;;;;;;;5039204;28;20401;-84
2022/08/24 21:56:31;;;;;;;;;;;;;;;;;;5041924;28;19917;-85
2022/08/24 21:58:57;;;;;;;;;;;;;;;;;;5034506;28;19940;-85
2022/08/24 22:01:22;;;;;;;;;;;;;;;;;;5037190;28;20287;-85
2022/08/24 22:03:47;;;;;;;;;;;;;;;;;;5037146;28;19952;-84
2022/08/24 22:06:12;;;;;;;;;;;;;;;;;;5041549;28;20255;-85
2022/08/24 22:08:37;;;;;;;;;;;;;;;;;;5036421;28;20008;-85
2022/08/24 22:11:03;;;;;;;;;;;;;;;;;;5037513;28;19970;-85
2022/08/24 22:13:28;;;;;;;;;;;;;;;;;;5043023;28;20320;-85
2022/08/24 22:15:53;;;;;;;;;;;;;;;;;;5039499;28;20008;-85
2022/08/24 22:18:18;;;;;;;;;;;;;;;;;;5039424;28;19927;-85
2022/08/24 22:20:43;;;;;;;;;;;;;;;;;;5039874;28;19940;-85
2022/08/24 22:23:08;;;;;;;;;;;;;;;;;;5038249;28;19999;-85
2022/08/24 22:25:34;;;;;;;;;;;;;;;;;;5037243;28;20002;-85
2022/08/24 22:27:59;;;;;;;;;;;;;;;;;;5043382;28;19920;-85
2022/08/24 22:30:24;;;;;;;;;;;;;;;;;;5033288;28;19913;-85
2022/08/24 22:32:49;;;;;;;;;;;;;;;;;;5041436;28;19925;-84
2022/08/24 22:35:14;;;;;;;;;;;;;;;;;;5039423;28;20386;-84
2022/08/24 22:37:40;;;;;;;;;;;;;;;;;;5045611;28;19916;-84
2022/08/24 22:40:05;;;;;;;;;;;;;;;;;;5018003;28;19923;-84
2022/08/24 22:42:31;;;;;;;;;;;;;;;;;;5044928;28;19923;-85
2022/08/24 22:44:57;;;;;;;;;;;;;;;;;;5039698;28;19945;-84
2022/08/24 22:47:23;;;;;;;;;;;;;;;;;;5027154;28;19917;-85
2022/08/24 22:49:48;;;;;;;;;;;;;;;;;;5040910;28;19912;-85
2022/08/24 22:52:13;;;;;;;;;;;;;;;;;;5043694;28;19913;-85
2022/08/24 22:54:38;;;;;;;;;;;;;;;;;;5040957;28;20008;-85
2022/08/24 22:57:03;;;;;;;;;;;;;;;;;;5039862;28;19917;-85
2022/08/24 22:59:28;;;;;;;;;;;;;;;;;;5045333;28;19944;-85
2022/08/24 23:01:54;;;;;;;;;;;;;;;;;;5045301;28;19938;-85
2022/08/24 23:04:19;;;;;;;;;;;;;;;;;;5043012;28;20431;-86
2022/08/24 23:06:44;;;;;;;;;;;;;;;;;;5044610;28;19920;-85
2022/08/24 23:09:09;;;;;;;;;;;;;;;;;;5057744;28;20428;-84
2022/08/24 23:11:34;;;;;;;;;;;;;;;;;;5034937;28;19912;-84
2022/08/24 23:14:02;;;;;;;;;;;;;;;;;;5047526;28;19932;-84
2022/08/24 23:16:27;;;;;;;;;;;;;;;;;;5051594;28;19920;-83
2022/08/24 23:21:37;;;;;;;;;;;;;;;;;;5050451;28;19915;-84
2022/08/24 23:24:02;;;;;;;;;;;;;;;;;;5049128;28;19912;-85
2022/08/24 23:26:27;;;;;;;;;;;;;;;;;;5053998;28;19925;-84
2022/08/24 23:28:52;;;;;;;;;;;;;;;;;;5053049;28;19913;-84
2022/08/24 23:31:17;;;;;;;;;;;;;;;;;;5050646;28;19968;-84
2022/08/24 23:33:42;;;;;;;;;;;;;;;;;;5036043;28;19917;-84
2022/08/24 23:36:07;;;;;;;;;;;;;;;;;;5046955;28;20563;-84
2022/08/24 23:38:33;;;;;;;;;;;;;;;;;;5034406;28;19928;-84
2022/08/24 23:40:58;;;;;;;;;;;;;;;;;;5055115;28;19996;-85
2022/08/24 23:43:23;;;;;;;;;;;;;;;;;;5051242;28;20027;-84
2022/08/24 23:45:48;;;;;;;;;;;;;;;;;;5050800;28;19919;-84
2022/08/24 23:48:13;;;;;;;;;;;;;;;;;;5049667;28;20394;-84
2022/08/24 23:50:39;;;;;;;;;;;;;;;;;;5051608;28;19913;-84
2022/08/24 23:53:04;;;;;;;;;;;;;;;;;;5054027;28;19920;-84
2022/08/24 23:55:29;;;;;;;;;;;;;;;;;;5052965;28;19924;-84
2022/08/24 23:57:54;;;;;;;;;;;;;;;;;;5042014;28;19996;-84
